sensor_id;sensor_type;location;lat;lon;timestamp;temperature;humidity
10583;DHT22;33679;51.218;6.786;2023-04-03T00:02:30;9.10;99.90
10583;DHT22;33679;51.218;6.786;2023-04-03T00:05:06;9.00;99.90
10583;DHT22;33679;51.218;6.786;2023-04-03T00:07:39;9.00;99.90
10583;DHT22;33679;51.218;6.786;2023-04-03T00:10:12;8.90;99.90
10583;DHT22;33679;51.218;6.786;2023-04-03T00:12:47;8.90;99.90
10583;DHT22;33679;51.218;6.786;2023-04-03T00:15:21;8.90;99.90
10583;DHT22;33679;51.218;6.786;2023-04-03T00:17:54;8.90;99.90
10583;DHT22;33679;51.218;6.786;2023-04-03T00:20:26;8.90;99.90
10583;DHT22;33679;51.218;6.786;2023-04-03T00:22:59;8.90;99.90
10583;DHT22;33679;51.218;6.786;2023-04-03T00:25:32;8.80;99.90
10583;DHT22;33679;51.218;6.786;2023-04-03T00:28:06;8.80;99.90
10583;DHT22;33679;51.218;6.786;2023-04-03T00:30:41;8.80;99.90
10583;DHT22;33679;51.218;6.786;2023-04-03T00:33:13;8.80;99.90
10583;DHT22;33679;51.218;6.786;2023-04-03T00:35:48;8.70;99.90
10583;DHT22;33679;51.218;6.786;2023-04-03T00:38:55;8.70;99.90
10583;DHT22;33679;51.218;6.786;2023-04-03T00:41:31;8.70;99.90
10583;DHT22;33679;51.218;6.786;2023-04-03T00:47:05;8.70;99.90
10583;DHT22;33679;51.218;6.786;2023-04-03T00:49:40;8.60;99.90
10583;DHT22;33679;51.218;6.786;2023-04-03T00:52:17;8.60;99.90
10583;DHT22;33679;51.218;6.786;2023-04-03T00:54:59;8.60;99.90
10583;DHT22;33679;51.218;6.786;2023-04-03T00:57:34;8.50;99.90
10583;DHT22;33679;51.218;6.786;2023-04-03T01:00:11;8.50;99.90
10583;DHT22;33679;51.218;6.786;2023-04-03T01:02:52;8.50;99.90
10583;DHT22;33679;51.218;6.786;2023-04-03T01:05:36;8.50;99.90
10583;DHT22;33679;51.218;6.786;2023-04-03T01:08:10;8.40;99.90
10583;DHT22;33679;51.218;6.786;2023-04-03T01:10:45;8.40;99.90
10583;DHT22;33679;51.218;6.786;2023-04-03T01:13:22;8.40;99.90
10583;DHT22;33679;51.218;6.786;2023-04-03T01:16:01;8.40;99.90
10583;DHT22;33679;51.218;6.786;2023-04-03T01:18:37;8.40;99.90
10583;DHT22;33679;51.218;6.786;2023-04-03T01:24:26;8.40;99.90
10583;DHT22;33679;51.218;6.786;2023-04-03T01:27:10;8.30;99.90
10583;DHT22;33679;51.218;6.786;2023-04-03T01:29:45;8.30;99.90
10583;DHT22;33679;51.218;6.786;2023-04-03T01:32:19;8.30;99.90
10583;DHT22;33679;51.218;6.786;2023-04-03T01:34:54;8.30;99.90
10583;DHT22;33679;51.218;6.786;2023-04-03T01:37:29;8.30;99.90
10583;DHT22;33679;51.218;6.786;2023-04-03T01:40:03;8.30;99.90
10583;DHT22;33679;51.218;6.786;2023-04-03T01:42:38;8.30;99.90
10583;DHT22;33679;51.218;6.786;2023-04-03T01:45:14;8.30;99.90
10583;DHT22;33679;51.218;6.786;2023-04-03T01:47:51;8.30;99.90
10583;DHT22;33679;51.218;6.786;2023-04-03T01:50:24;8.30;99.90
10583;DHT22;33679;51.218;6.786;2023-04-03T01:53:01;8.30;99.90
10583;DHT22;33679;51.218;6.786;2023-04-03T01:55:36;8.20;99.90
10583;DHT22;33679;51.218;6.786;2023-04-03T01:58:09;8.10;99.90
10583;DHT22;33679;51.218;6.786;2023-04-03T02:00:44;8.10;99.90
10583;DHT22;33679;51.218;6.786;2023-04-03T02:03:18;8.00;99.90
10583;DHT22;33679;51.218;6.786;2023-04-03T02:08:41;7.80;99.90
10583;DHT22;33679;51.218;6.786;2023-04-03T02:11:15;7.70;99.90
10583;DHT22;33679;51.218;6.786;2023-04-03T02:13:48;7.70;99.90
10583;DHT22;33679;51.218;6.786;2023-04-03T02:16:20;7.70;99.90
10583;DHT22;33679;51.218;6.786;2023-04-03T02:18:55;7.80;99.90
10583;DHT22;33679;51.218;6.786;2023-04-03T02:21:31;7.80;99.90
10583;DHT22;33679;51.218;6.786;2023-04-03T02:24:04;7.80;99.90
10583;DHT22;33679;51.218;6.786;2023-04-03T02:26:40;7.80;99.90
10583;DHT22;33679;51.218;6.786;2023-04-03T02:29:15;7.80;99.90
10583;DHT22;33679;51.218;6.786;2023-04-03T02:31:48;7.70;99.90
10583;DHT22;33679;51.218;6.786;2023-04-03T02:56:36;8.20;99.90
10583;DHT22;33679;51.218;6.786;2023-04-03T02:59:12;8.20;99.90
10583;DHT22;33679;51.218;6.786;2023-04-03T03:01:48;8.10;99.90
10583;DHT22;33679;51.218;6.786;2023-04-03T03:04:21;8.00;99.90
10583;DHT22;33679;51.218;6.786;2023-04-03T03:06:57;7.80;99.90
10583;DHT22;33679;51.218;6.786;2023-04-03T03:09:29;7.70;99.90
10583;DHT22;33679;51.218;6.786;2023-04-03T03:12:05;7.60;99.90
10583;DHT22;33679;51.218;6.786;2023-04-03T03:14:40;7.60;99.90
10583;DHT22;33679;51.218;6.786;2023-04-03T03:17:47;7.50;99.90
10583;DHT22;33679;51.218;6.786;2023-04-03T03:20:25;7.50;99.90
10583;DHT22;33679;51.218;6.786;2023-04-03T03:23:01;7.50;99.90
10583;DHT22;33679;51.218;6.786;2023-04-03T03:25:35;7.40;99.90
10583;DHT22;33679;51.218;6.786;2023-04-03T03:28:24;7.40;99.90
10583;DHT22;33679;51.218;6.786;2023-04-03T03:30:57;7.30;99.90
10583;DHT22;33679;51.218;6.786;2023-04-03T03:33:33;7.20;99.90
10583;DHT22;33679;51.218;6.786;2023-04-03T03:36:07;7.10;99.90
10583;DHT22;33679;51.218;6.786;2023-04-03T03:38:45;7.00;99.90
10583;DHT22;33679;51.218;6.786;2023-04-03T03:41:18;6.90;99.90
10583;DHT22;33679;51.218;6.786;2023-04-03T03:43:55;6.90;99.90
10583;DHT22;33679;51.218;6.786;2023-04-03T03:46:35;6.80;99.90
10583;DHT22;33679;51.218;6.786;2023-04-03T03:49:08;6.80;99.90
10583;DHT22;33679;51.218;6.786;2023-04-03T03:52:01;6.80;99.90
10583;DHT22;33679;51.218;6.786;2023-04-03T03:54:48;6.80;99.90
10583;DHT22;33679;51.218;6.786;2023-04-03T03:57:21;6.80;99.90
10583;DHT22;33679;51.218;6.786;2023-04-03T04:00:01;6.70;99.90
10583;DHT22;33679;51.218;6.786;2023-04-03T04:02:39;6.60;99.90
10583;DHT22;33679;51.218;6.786;2023-04-03T04:05:22;6.70;99.90
10583;DHT22;33679;51.218;6.786;2023-04-03T04:07:55;6.60;99.90
10583;DHT22;33679;51.218;6.786;2023-04-03T04:10:33;6.50;99.90
10583;DHT22;33679;51.218;6.786;2023-04-03T04:13:07;6.50;99.90
10583;DHT22;33679;51.218;6.786;2023-04-03T04:15:42;6.50;99.90
10583;DHT22;33679;51.218;6.786;2023-04-03T04:18:14;6.50;99.90
10583;DHT22;33679;51.218;6.786;2023-04-03T04:20:50;6.40;99.90
10583;DHT22;33679;51.218;6.786;2023-04-03T04:23:23;6.40;99.90
10583;DHT22;33679;51.218;6.786;2023-04-03T04:25:57;6.30;99.90
10583;DHT22;33679;51.218;6.786;2023-04-03T04:28:33;6.30;99.90
10583;DHT22;33679;51.218;6.786;2023-04-03T04:31:16;6.30;99.90
10583;DHT22;33679;51.218;6.786;2023-04-03T04:34:15;6.20;99.90
10583;DHT22;33679;51.218;6.786;2023-04-03T04:36:48;6.20;99.90
10583;DHT22;33679;51.218;6.786;2023-04-03T04:39:21;6.10;99.90
10583;DHT22;33679;51.218;6.786;2023-04-03T04:41:54;6.20;99.90
10583;DHT22;33679;51.218;6.786;2023-04-03T04:44:31;6.20;99.90
10583;DHT22;33679;51.218;6.786;2023-04-03T04:47:08;6.20;99.90
10583;DHT22;33679;51.218;6.786;2023-04-03T04:49:43;6.10;99.90
10583;DHT22;33679;51.218;6.786;2023-04-03T04:52:22;6.10;99.90
10583;DHT22;33679;51.218;6.786;2023-04-03T04:54:55;6.10;99.90
10583;DHT22;33679;51.218;6.786;2023-04-03T04:57:27;6.10;99.90
10583;DHT22;33679;51.218;6.786;2023-04-03T05:00:08;6.10;99.90
10583;DHT22;33679;51.218;6.786;2023-04-03T05:02:48;6.10;99.90
10583;DHT22;33679;51.218;6.786;2023-04-03T05:05:25;6.10;99.90
10583;DHT22;33679;51.218;6.786;2023-04-03T05:08:02;6.00;99.90
10583;DHT22;33679;51.218;6.786;2023-04-03T05:10:39;6.00;99.90
10583;DHT22;33679;51.218;6.786;2023-04-03T05:13:16;6.00;99.90
10583;DHT22;33679;51.218;6.786;2023-04-03T05:15:49;6.10;99.90
10583;DHT22;33679;51.218;6.786;2023-04-03T05:18:23;6.10;99.90
10583;DHT22;33679;51.218;6.786;2023-04-03T05:21:01;6.10;99.90
10583;DHT22;33679;51.218;6.786;2023-04-03T05:23:36;6.00;99.90
10583;DHT22;33679;51.218;6.786;2023-04-03T05:26:09;6.00;99.90
10583;DHT22;33679;51.218;6.786;2023-04-03T05:28:43;6.00;99.90
10583;DHT22;33679;51.218;6.786;2023-04-03T05:31:17;5.90;99.90
10583;DHT22;33679;51.218;6.786;2023-04-03T05:33:52;5.80;99.90
10583;DHT22;33679;51.218;6.786;2023-04-03T05:36:25;5.90;99.90
10583;DHT22;33679;51.218;6.786;2023-04-03T05:39:05;5.90;99.90
10583;DHT22;33679;51.218;6.786;2023-04-03T05:41:43;5.90;99.90
10583;DHT22;33679;51.218;6.786;2023-04-03T05:44:16;5.90;99.90
10583;DHT22;33679;51.218;6.786;2023-04-03T05:47:05;6.00;99.90
10583;DHT22;33679;51.218;6.786;2023-04-03T05:49:43;6.00;99.90
10583;DHT22;33679;51.218;6.786;2023-04-03T05:52:23;6.10;99.90
10583;DHT22;33679;51.218;6.786;2023-04-03T05:54:59;6.10;99.90
10583;DHT22;33679;51.218;6.786;2023-04-03T05:57:34;6.00;99.90
10583;DHT22;33679;51.218;6.786;2023-04-03T06:00:14;6.10;99.90
10583;DHT22;33679;51.218;6.786;2023-04-03T06:02:57;6.00;99.90
10583;DHT22;33679;51.218;6.786;2023-04-03T06:05:37;6.10;99.90
10583;DHT22;33679;51.218;6.786;2023-04-03T06:08:16;6.00;99.90
10583;DHT22;33679;51.218;6.786;2023-04-03T06:10:49;6.10;99.90
10583;DHT22;33679;51.218;6.786;2023-04-03T06:13:25;6.00;99.90
10583;DHT22;33679;51.218;6.786;2023-04-03T06:15:58;6.10;99.90
10583;DHT22;33679;51.218;6.786;2023-04-03T06:18:30;6.10;99.90
10583;DHT22;33679;51.218;6.786;2023-04-03T06:21:05;6.20;99.90
10583;DHT22;33679;51.218;6.786;2023-04-03T06:23:43;6.20;99.90
10583;DHT22;33679;51.218;6.786;2023-04-03T06:26:20;6.20;99.90
10583;DHT22;33679;51.218;6.786;2023-04-03T06:29:01;6.20;99.90
10583;DHT22;33679;51.218;6.786;2023-04-03T06:31:36;6.30;99.90
10583;DHT22;33679;51.218;6.786;2023-04-03T06:34:16;6.40;99.90
10583;DHT22;33679;51.218;6.786;2023-04-03T06:37:01;6.40;99.90
10583;DHT22;33679;51.218;6.786;2023-04-03T06:39:41;6.40;99.90
10583;DHT22;33679;51.218;6.786;2023-04-03T06:42:16;6.40;99.90
10583;DHT22;33679;51.218;6.786;2023-04-03T06:45:07;6.50;99.90
10583;DHT22;33679;51.218;6.786;2023-04-03T06:47:48;6.50;99.90
10583;DHT22;33679;51.218;6.786;2023-04-03T06:50:25;6.40;99.90
10583;DHT22;33679;51.218;6.786;2023-04-03T06:53:06;6.50;99.90
10583;DHT22;33679;51.218;6.786;2023-04-03T06:55:43;6.50;99.90
10583;DHT22;33679;51.218;6.786;2023-04-03T06:58:25;6.50;99.90
10583;DHT22;33679;51.218;6.786;2023-04-03T07:00:58;6.60;99.90
10583;DHT22;33679;51.218;6.786;2023-04-03T07:03:37;6.50;99.90
10583;DHT22;33679;51.218;6.786;2023-04-03T07:06:15;6.60;99.90
10583;DHT22;33679;51.218;6.786;2023-04-03T07:08:50;6.60;99.90
10583;DHT22;33679;51.218;6.786;2023-04-03T07:11:31;6.60;99.90
10583;DHT22;33679;51.218;6.786;2023-04-03T07:14:04;6.70;99.90
10583;DHT22;33679;51.218;6.786;2023-04-03T07:16:37;6.70;99.90
10583;DHT22;33679;51.218;6.786;2023-04-03T07:19:09;6.70;99.90
10583;DHT22;33679;51.218;6.786;2023-04-03T07:21:58;6.70;99.90
10583;DHT22;33679;51.218;6.786;2023-04-03T07:24:33;6.70;99.90
10583;DHT22;33679;51.218;6.786;2023-04-03T07:27:22;6.80;99.90
10583;DHT22;33679;51.218;6.786;2023-04-03T07:29:59;6.80;99.90
10583;DHT22;33679;51.218;6.786;2023-04-03T07:32:32;6.80;99.90
10583;DHT22;33679;51.218;6.786;2023-04-03T07:35:06;6.80;99.90
10583;DHT22;33679;51.218;6.786;2023-04-03T07:37:44;6.80;99.90
10583;DHT22;33679;51.218;6.786;2023-04-03T07:40:21;7.00;99.90
10583;DHT22;33679;51.218;6.786;2023-04-03T07:42:55;7.00;99.90
10583;DHT22;33679;51.218;6.786;2023-04-03T07:45:29;7.00;99.90
10583;DHT22;33679;51.218;6.786;2023-04-03T07:48:09;7.00;99.90
10583;DHT22;33679;51.218;6.786;2023-04-03T07:50:50;7.00;99.90
10583;DHT22;33679;51.218;6.786;2023-04-03T07:53:23;7.00;99.90
10583;DHT22;33679;51.218;6.786;2023-04-03T07:55:58;7.10;99.90
10583;DHT22;33679;51.218;6.786;2023-04-03T07:58:31;7.10;99.90
10583;DHT22;33679;51.218;6.786;2023-04-03T08:01:07;7.10;99.90
10583;DHT22;33679;51.218;6.786;2023-04-03T08:03:40;7.20;99.90
10583;DHT22;33679;51.218;6.786;2023-04-03T08:06:25;7.20;99.90
10583;DHT22;33679;51.218;6.786;2023-04-03T08:09:03;7.30;99.90
10583;DHT22;33679;51.218;6.786;2023-04-03T08:11:51;7.30;99.90
10583;DHT22;33679;51.218;6.786;2023-04-03T08:14:24;7.30;99.90
10583;DHT22;33679;51.218;6.786;2023-04-03T08:16:58;7.30;99.90
10583;DHT22;33679;51.218;6.786;2023-04-03T08:19:34;7.30;99.90
10583;DHT22;33679;51.218;6.786;2023-04-03T08:22:07;7.40;99.90
10583;DHT22;33679;51.218;6.786;2023-04-03T08:24:48;7.50;99.90
10583;DHT22;33679;51.218;6.786;2023-04-03T08:27:25;7.50;99.90
10583;DHT22;33679;51.218;6.786;2023-04-03T08:29:59;7.60;99.90
10583;DHT22;33679;51.218;6.786;2023-04-03T08:32:33;7.60;99.90
10583;DHT22;33679;51.218;6.786;2023-04-03T08:35:22;7.60;99.90
10583;DHT22;33679;51.218;6.786;2023-04-03T08:38:01;7.60;99.90
10583;DHT22;33679;51.218;6.786;2023-04-03T08:40:37;7.70;99.90
10583;DHT22;33679;51.218;6.786;2023-04-03T08:43:29;7.80;99.90
10583;DHT22;33679;51.218;6.786;2023-04-03T08:46:05;7.80;99.90
10583;DHT22;33679;51.218;6.786;2023-04-03T08:48:41;7.90;99.90
10583;DHT22;33679;51.218;6.786;2023-04-03T08:51:19;7.90;99.90
10583;DHT22;33679;51.218;6.786;2023-04-03T08:53:56;7.90;99.90
10583;DHT22;33679;51.218;6.786;2023-04-03T08:56:39;7.90;99.90
10583;DHT22;33679;51.218;6.786;2023-04-03T08:59:24;7.90;99.90
10583;DHT22;33679;51.218;6.786;2023-04-03T09:02:02;8.00;99.90
10583;DHT22;33679;51.218;6.786;2023-04-03T09:04:38;8.10;99.90
10583;DHT22;33679;51.218;6.786;2023-04-03T09:10:18;8.20;99.90
10583;DHT22;33679;51.218;6.786;2023-04-03T09:12:59;8.30;99.90
10583;DHT22;33679;51.218;6.786;2023-04-03T09:15:35;8.30;99.90
10583;DHT22;33679;51.218;6.786;2023-04-03T09:18:15;8.20;99.90
10583;DHT22;33679;51.218;6.786;2023-04-03T09:20:56;8.30;99.90
10583;DHT22;33679;51.218;6.786;2023-04-03T09:23:42;8.40;99.90
10583;DHT22;33679;51.218;6.786;2023-04-03T09:26:30;8.40;99.90
10583;DHT22;33679;51.218;6.786;2023-04-03T09:29:07;8.40;99.90
10583;DHT22;33679;51.218;6.786;2023-04-03T09:31:56;8.40;99.90
10583;DHT22;33679;51.218;6.786;2023-04-03T09:34:32;8.40;99.90
10583;DHT22;33679;51.218;6.786;2023-04-03T09:37:35;8.40;99.90
10583;DHT22;33679;51.218;6.786;2023-04-03T09:40:33;8.50;99.90
10583;DHT22;33679;51.218;6.786;2023-04-03T09:43:30;8.60;99.90
10583;DHT22;33679;51.218;6.786;2023-04-03T09:46:29;8.70;99.90
10583;DHT22;33679;51.218;6.786;2023-04-03T09:49:04;8.80;99.90
10583;DHT22;33679;51.218;6.786;2023-04-03T09:51:41;8.80;99.90
10583;DHT22;33679;51.218;6.786;2023-04-03T09:54:31;8.90;99.90
10583;DHT22;33679;51.218;6.786;2023-04-03T09:57:12;9.00;99.90
10583;DHT22;33679;51.218;6.786;2023-04-03T09:59:47;9.00;99.90
10583;DHT22;33679;51.218;6.786;2023-04-03T10:02:42;9.00;99.90
10583;DHT22;33679;51.218;6.786;2023-04-03T10:05:56;9.00;99.90
10583;DHT22;33679;51.218;6.786;2023-04-03T10:08:32;9.00;99.90
10583;DHT22;33679;51.218;6.786;2023-04-03T10:11:21;9.10;99.90
10583;DHT22;33679;51.218;6.786;2023-04-03T10:14:01;9.20;99.90
10583;DHT22;33679;51.218;6.786;2023-04-03T10:16:43;9.20;99.90
10583;DHT22;33679;51.218;6.786;2023-04-03T10:19:44;9.20;99.90
10583;DHT22;33679;51.218;6.786;2023-04-03T10:22:52;9.20;99.90
10583;DHT22;33679;51.218;6.786;2023-04-03T10:26:09;9.30;99.90
10583;DHT22;33679;51.218;6.786;2023-04-03T10:28:51;9.40;99.90
10583;DHT22;33679;51.218;6.786;2023-04-03T10:31:45;9.40;99.90
10583;DHT22;33679;51.218;6.786;2023-04-03T10:34:43;9.40;99.90
10583;DHT22;33679;51.218;6.786;2023-04-03T10:37:23;9.40;99.90
10583;DHT22;33679;51.218;6.786;2023-04-03T10:43:12;9.60;99.90
10583;DHT22;33679;51.218;6.786;2023-04-03T10:45:57;9.60;99.90
10583;DHT22;33679;51.218;6.786;2023-04-03T10:48:50;9.70;99.90
10583;DHT22;33679;51.218;6.786;2023-04-03T10:51:39;9.70;99.90
10583;DHT22;33679;51.218;6.786;2023-04-03T10:54:30;9.80;99.90
10583;DHT22;33679;51.218;6.786;2023-04-03T10:57:10;9.90;99.90
10583;DHT22;33679;51.218;6.786;2023-04-03T10:59:48;10.00;99.90
10583;DHT22;33679;51.218;6.786;2023-04-03T11:02:33;10.00;99.90
10583;DHT22;33679;51.218;6.786;2023-04-03T11:05:21;9.90;99.90
10583;DHT22;33679;51.218;6.786;2023-04-03T11:08:04;9.90;99.90
10583;DHT22;33679;51.218;6.786;2023-04-03T11:10:47;10.00;99.90
10583;DHT22;33679;51.218;6.786;2023-04-03T11:13:35;10.00;99.90
10583;DHT22;33679;51.218;6.786;2023-04-03T11:16:21;10.10;99.90
10583;DHT22;33679;51.218;6.786;2023-04-03T11:19:08;10.20;99.90
10583;DHT22;33679;51.218;6.786;2023-04-03T11:22:00;10.20;99.00
10583;DHT22;33679;51.218;6.786;2023-04-03T11:24:57;10.20;97.10
10583;DHT22;33679;51.218;6.786;2023-04-03T11:27:48;10.20;95.60
10583;DHT22;33679;51.218;6.786;2023-04-03T11:30:42;10.20;95.30
10583;DHT22;33679;51.218;6.786;2023-04-03T11:33:43;10.30;95.90
10583;DHT22;33679;51.218;6.786;2023-04-03T11:36:26;10.40;95.60
10583;DHT22;33679;51.218;6.786;2023-04-03T11:39:10;10.40;95.80
10583;DHT22;33679;51.218;6.786;2023-04-03T11:41:47;10.50;95.70
10583;DHT22;33679;51.218;6.786;2023-04-03T11:44:32;10.50;95.70
10583;DHT22;33679;51.218;6.786;2023-04-03T11:47:06;10.60;95.10
10583;DHT22;33679;51.218;6.786;2023-04-03T11:50:03;10.70;94.70
10583;DHT22;33679;51.218;6.786;2023-04-03T11:52:59;10.80;94.80
10583;DHT22;33679;51.218;6.786;2023-04-03T11:55:59;10.90;94.00
10583;DHT22;33679;51.218;6.786;2023-04-03T11:59:14;10.90;93.20
10583;DHT22;33679;51.218;6.786;2023-04-03T12:01:50;10.90;93.40
10583;DHT22;33679;51.218;6.786;2023-04-03T12:04:24;10.90;93.40
10583;DHT22;33679;51.218;6.786;2023-04-03T12:07:15;10.90;93.60
10583;DHT22;33679;51.218;6.786;2023-04-03T12:09:58;10.90;93.70
10583;DHT22;33679;51.218;6.786;2023-04-03T12:13:00;11.00;93.70
10583;DHT22;33679;51.218;6.786;2023-04-03T12:16:19;11.00;94.10
10583;DHT22;33679;51.218;6.786;2023-04-03T12:19:13;11.00;94.40
10583;DHT22;33679;51.218;6.786;2023-04-03T12:22:17;11.10;94.70
10583;DHT22;33679;51.218;6.786;2023-04-03T12:24:52;11.10;94.20
10583;DHT22;33679;51.218;6.786;2023-04-03T12:27:28;11.20;94.40
10583;DHT22;33679;51.218;6.786;2023-04-03T12:30:12;11.30;95.60
10583;DHT22;33679;51.218;6.786;2023-04-03T12:33:23;11.30;96.00
10583;DHT22;33679;51.218;6.786;2023-04-03T12:36:13;11.40;96.50
10583;DHT22;33679;51.218;6.786;2023-04-03T12:39:17;11.40;96.40
10583;DHT22;33679;51.218;6.786;2023-04-03T12:41:58;11.50;96.20
10583;DHT22;33679;51.218;6.786;2023-04-03T12:44:46;11.40;96.50
10583;DHT22;33679;51.218;6.786;2023-04-03T12:47:26;11.40;95.80
10583;DHT22;33679;51.218;6.786;2023-04-03T12:50:01;11.40;95.30
10583;DHT22;33679;51.218;6.786;2023-04-03T12:52:39;11.40;95.40
10583;DHT22;33679;51.218;6.786;2023-04-03T12:55:17;11.30;95.00
10583;DHT22;33679;51.218;6.786;2023-04-03T12:57:49;11.30;94.90
10583;DHT22;33679;51.218;6.786;2023-04-03T13:00:30;11.30;95.10
10583;DHT22;33679;51.218;6.786;2023-04-03T13:03:05;11.30;94.70
10583;DHT22;33679;51.218;6.786;2023-04-03T13:05:38;11.30;94.80
10583;DHT22;33679;51.218;6.786;2023-04-03T13:08:13;11.20;94.90
10583;DHT22;33679;51.218;6.786;2023-04-03T13:10:54;11.20;95.40
10583;DHT22;33679;51.218;6.786;2023-04-03T13:13:28;11.30;95.50
10583;DHT22;33679;51.218;6.786;2023-04-03T13:16:08;11.30;95.20
10583;DHT22;33679;51.218;6.786;2023-04-03T13:18:44;11.30;95.60
10583;DHT22;33679;51.218;6.786;2023-04-03T13:21:27;11.20;95.70
10583;DHT22;33679;51.218;6.786;2023-04-03T13:24:10;11.30;95.80
10583;DHT22;33679;51.218;6.786;2023-04-03T13:26:47;11.40;95.80
10583;DHT22;33679;51.218;6.786;2023-04-03T13:29:23;11.30;96.20
10583;DHT22;33679;51.218;6.786;2023-04-03T13:31:58;11.30;96.10
10583;DHT22;33679;51.218;6.786;2023-04-03T13:34:36;11.40;96.30
10583;DHT22;33679;51.218;6.786;2023-04-03T13:37:20;11.50;96.10
10583;DHT22;33679;51.218;6.786;2023-04-03T13:39:58;11.50;96.30
10583;DHT22;33679;51.218;6.786;2023-04-03T13:42:34;11.60;96.50
10583;DHT22;33679;51.218;6.786;2023-04-03T13:45:17;11.50;96.50
10583;DHT22;33679;51.218;6.786;2023-04-03T13:47:53;11.50;96.30
10583;DHT22;33679;51.218;6.786;2023-04-03T13:50:27;11.50;96.20
10583;DHT22;33679;51.218;6.786;2023-04-03T13:53:08;11.40;96.30
10583;DHT22;33679;51.218;6.786;2023-04-03T13:55:56;11.50;96.00
10583;DHT22;33679;51.218;6.786;2023-04-03T13:58:32;11.50;96.40
10583;DHT22;33679;51.218;6.786;2023-04-03T14:01:11;11.50;96.10
10583;DHT22;33679;51.218;6.786;2023-04-03T14:03:46;11.40;96.20
10583;DHT22;33679;51.218;6.786;2023-04-03T14:06:19;11.40;96.40
10583;DHT22;33679;51.218;6.786;2023-04-03T14:08:51;11.40;96.50
10583;DHT22;33679;51.218;6.786;2023-04-03T14:11:28;11.40;96.60
10583;DHT22;33679;51.218;6.786;2023-04-03T14:14:09;11.50;96.60
10583;DHT22;33679;51.218;6.786;2023-04-03T14:16:44;11.50;96.50
10583;DHT22;33679;51.218;6.786;2023-04-03T14:19:22;11.60;96.40
10583;DHT22;33679;51.218;6.786;2023-04-03T14:21:56;11.60;96.30
10583;DHT22;33679;51.218;6.786;2023-04-03T14:24:30;11.50;96.20
10583;DHT22;33679;51.218;6.786;2023-04-03T14:27:14;11.50;96.30
10583;DHT22;33679;51.218;6.786;2023-04-03T14:29:51;11.60;96.40
10583;DHT22;33679;51.218;6.786;2023-04-03T14:32:29;11.50;96.40
10583;DHT22;33679;51.218;6.786;2023-04-03T14:35:05;11.60;96.70
10583;DHT22;33679;51.218;6.786;2023-04-03T14:37:39;11.60;96.80
10583;DHT22;33679;51.218;6.786;2023-04-03T14:40:16;11.70;96.60
10583;DHT22;33679;51.218;6.786;2023-04-03T14:42:49;11.60;96.20
10583;DHT22;33679;51.218;6.786;2023-04-03T14:45:26;11.60;96.70
10583;DHT22;33679;51.218;6.786;2023-04-03T14:47:59;11.60;96.70
10583;DHT22;33679;51.218;6.786;2023-04-03T14:50:31;11.60;96.40
10583;DHT22;33679;51.218;6.786;2023-04-03T14:53:04;11.60;96.60
10583;DHT22;33679;51.218;6.786;2023-04-03T14:55:41;11.60;96.70
10583;DHT22;33679;51.218;6.786;2023-04-03T14:58:22;11.60;96.80
10583;DHT22;33679;51.218;6.786;2023-04-03T15:00:56;11.60;96.70
10583;DHT22;33679;51.218;6.786;2023-04-03T15:03:29;11.60;96.90
10583;DHT22;33679;51.218;6.786;2023-04-03T15:06:02;11.50;96.70
10583;DHT22;33679;51.218;6.786;2023-04-03T15:08:34;11.50;96.80
10583;DHT22;33679;51.218;6.786;2023-04-03T15:11:09;11.40;97.00
10583;DHT22;33679;51.218;6.786;2023-04-03T15:13:42;11.40;97.30
10583;DHT22;33679;51.218;6.786;2023-04-03T15:16:18;11.40;97.60
10583;DHT22;33679;51.218;6.786;2023-04-03T15:18:57;11.40;97.40
10583;DHT22;33679;51.218;6.786;2023-04-03T15:21:31;11.40;97.40
10583;DHT22;33679;51.218;6.786;2023-04-03T15:24:04;11.40;97.50
10583;DHT22;33679;51.218;6.786;2023-04-03T15:26:37;11.50;97.40
10583;DHT22;33679;51.218;6.786;2023-04-03T15:29:10;11.50;97.20
10583;DHT22;33679;51.218;6.786;2023-04-03T15:31:43;11.40;97.10
10583;DHT22;33679;51.218;6.786;2023-04-03T15:34:16;11.30;97.40
10583;DHT22;33679;51.218;6.786;2023-04-03T15:36:50;11.20;97.60
10583;DHT22;33679;51.218;6.786;2023-04-03T15:39:24;11.20;97.60
10583;DHT22;33679;51.218;6.786;2023-04-03T15:41:57;11.30;97.50
10583;DHT22;33679;51.218;6.786;2023-04-03T15:44:40;11.30;97.60
10583;DHT22;33679;51.218;6.786;2023-04-03T15:47:14;11.30;97.70
10583;DHT22;33679;51.218;6.786;2023-04-03T15:49:49;11.30;97.70
10583;DHT22;33679;51.218;6.786;2023-04-03T15:52:22;11.30;97.40
10583;DHT22;33679;51.218;6.786;2023-04-03T15:54:54;11.30;97.40
10583;DHT22;33679;51.218;6.786;2023-04-03T15:57:35;11.30;97.70
10583;DHT22;33679;51.218;6.786;2023-04-03T16:00:10;11.30;97.60
10583;DHT22;33679;51.218;6.786;2023-04-03T16:02:47;11.30;97.70
10583;DHT22;33679;51.218;6.786;2023-04-03T16:05:20;11.20;97.80
10583;DHT22;33679;51.218;6.786;2023-04-03T16:07:57;11.20;97.70
10583;DHT22;33679;51.218;6.786;2023-04-03T16:10:47;11.20;97.50
10583;DHT22;33679;51.218;6.786;2023-04-03T16:13:25;11.20;97.50
10583;DHT22;33679;51.218;6.786;2023-04-03T16:23:23;10.90;98.00
10583;DHT22;33679;51.218;6.786;2023-04-03T16:25:58;10.90;97.90
10583;DHT22;33679;51.218;6.786;2023-04-03T16:28:30;10.90;97.70
10583;DHT22;33679;51.218;6.786;2023-04-03T16:31:03;10.90;97.60
10583;DHT22;33679;51.218;6.786;2023-04-03T16:33:40;10.90;97.60
10583;DHT22;33679;51.218;6.786;2023-04-03T16:36:13;10.90;97.80
10583;DHT22;33679;51.218;6.786;2023-04-03T16:38:49;10.90;98.10
10583;DHT22;33679;51.218;6.786;2023-04-03T16:41:23;10.90;98.30
10583;DHT22;33679;51.218;6.786;2023-04-03T16:43:56;10.80;98.50
10583;DHT22;33679;51.218;6.786;2023-04-03T16:46:28;10.70;98.60
10583;DHT22;33679;51.218;6.786;2023-04-03T16:49:07;10.70;98.60
10583;DHT22;33679;51.218;6.786;2023-04-03T16:51:40;10.70;98.70
10583;DHT22;33679;51.218;6.786;2023-04-03T16:54:17;10.60;98.80
10583;DHT22;33679;51.218;6.786;2023-04-03T16:56:50;10.60;98.70
10583;DHT22;33679;51.218;6.786;2023-04-03T16:59:24;10.70;98.90
10583;DHT22;33679;51.218;6.786;2023-04-03T17:01:59;10.60;98.90
10583;DHT22;33679;51.218;6.786;2023-04-03T17:04:34;10.60;98.80
10583;DHT22;33679;51.218;6.786;2023-04-03T17:07:07;10.70;98.90
10583;DHT22;33679;51.218;6.786;2023-04-03T17:09:41;10.70;98.60
10583;DHT22;33679;51.218;6.786;2023-04-03T17:12:14;10.70;98.80
10583;DHT22;33679;51.218;6.786;2023-04-03T17:15:02;10.60;98.60
10583;DHT22;33679;51.218;6.786;2023-04-03T17:17:35;10.50;98.80
10583;DHT22;33679;51.218;6.786;2023-04-03T17:20:47;10.40;98.80
10583;DHT22;33679;51.218;6.786;2023-04-03T17:23:20;10.30;98.60
10583;DHT22;33679;51.218;6.786;2023-04-03T17:25:54;10.30;98.80
10583;DHT22;33679;51.218;6.786;2023-04-03T17:28:29;10.30;98.80
10583;DHT22;33679;51.218;6.786;2023-04-03T17:31:03;10.30;98.90
10583;DHT22;33679;51.218;6.786;2023-04-03T17:33:36;10.30;98.90
10583;DHT22;33679;51.218;6.786;2023-04-03T17:36:09;10.30;98.90
10583;DHT22;33679;51.218;6.786;2023-04-03T17:38:42;10.30;98.90
10583;DHT22;33679;51.218;6.786;2023-04-03T17:41:21;10.30;99.00